sensor_id;sensor_type;location;lat;lon;timestamp;P1;durP1;ratioP1;P2;durP2;ratioP2
27744;SDS011;61387;48.112;8.616;2022-12-07T00:00:41;16.23;;;8.07;;
27744;SDS011;61387;48.112;8.616;2022-12-07T00:03:07;13.70;;;7.33;;
27744;SDS011;61387;48.112;8.616;2022-12-07T00:05:33;17.67;;;8.27;;
27744;SDS011;61387;48.112;8.616;2022-12-07T00:07:58;18.00;;;8.60;;
27744;SDS011;61387;48.112;8.616;2022-12-07T00:10:24;17.17;;;8.00;;
27744;SDS011;61387;48.112;8.616;2022-12-07T00:12:50;15.07;;;8.57;;
27744;SDS011;61387;48.112;8.616;2022-12-07T00:15:16;15.63;;;8.17;;
27744;SDS011;61387;48.112;8.616;2022-12-07T00:17:42;15.70;;;7.47;;
27744;SDS011;61387;48.112;8.616;2022-12-07T00:20:08;14.63;;;7.67;;
27744;SDS011;61387;48.112;8.616;2022-12-07T00:22:34;13.90;;;7.07;;
27744;SDS011;61387;48.112;8.616;2022-12-07T00:25:00;15.10;;;7.93;;
27744;SDS011;61387;48.112;8.616;2022-12-07T00:27:26;13.93;;;7.50;;
27744;SDS011;61387;48.112;8.616;2022-12-07T00:29:52;14.83;;;7.73;;
27744;SDS011;61387;48.112;8.616;2022-12-07T00:32:18;14.13;;;7.33;;
27744;SDS011;61387;48.112;8.616;2022-12-07T00:34:44;13.63;;;7.10;;
27744;SDS011;61387;48.112;8.616;2022-12-07T00:37:10;16.37;;;8.03;;
27744;SDS011;61387;48.112;8.616;2022-12-07T00:39:37;16.97;;;7.50;;
27744;SDS011;61387;48.112;8.616;2022-12-07T00:42:03;12.37;;;6.50;;
27744;SDS011;61387;48.112;8.616;2022-12-07T00:44:29;12.43;;;6.87;;
27744;SDS011;61387;48.112;8.616;2022-12-07T00:46:55;14.33;;;7.10;;
27744;SDS011;61387;48.112;8.616;2022-12-07T00:49:21;16.17;;;7.43;;
27744;SDS011;61387;48.112;8.616;2022-12-07T00:51:50;13.87;;;7.43;;
27744;SDS011;61387;48.112;8.616;2022-12-07T00:54:15;13.43;;;7.00;;
27744;SDS011;61387;48.112;8.616;2022-12-07T00:56:41;12.60;;;6.77;;
27744;SDS011;61387;48.112;8.616;2022-12-07T00:59:10;14.37;;;6.70;;
27744;SDS011;61387;48.112;8.616;2022-12-07T01:01:38;12.60;;;6.60;;
27744;SDS011;61387;48.112;8.616;2022-12-07T01:04:05;14.43;;;6.83;;
27744;SDS011;61387;48.112;8.616;2022-12-07T01:06:31;15.73;;;7.50;;
27744;SDS011;61387;48.112;8.616;2022-12-07T01:08:58;15.30;;;6.70;;
27744;SDS011;61387;48.112;8.616;2022-12-07T01:11:25;12.87;;;6.47;;
27744;SDS011;61387;48.112;8.616;2022-12-07T01:13:53;13.30;;;7.03;;
27744;SDS011;61387;48.112;8.616;2022-12-07T01:16:20;11.57;;;6.47;;
27744;SDS011;61387;48.112;8.616;2022-12-07T01:18:48;15.73;;;7.23;;
27744;SDS011;61387;48.112;8.616;2022-12-07T01:21:15;13.77;;;7.20;;
27744;SDS011;61387;48.112;8.616;2022-12-07T01:23:43;14.47;;;7.80;;
27744;SDS011;61387;48.112;8.616;2022-12-07T01:26:11;15.27;;;7.60;;
27744;SDS011;61387;48.112;8.616;2022-12-07T01:28:38;14.23;;;7.27;;
27744;SDS011;61387;48.112;8.616;2022-12-07T01:31:05;15.03;;;7.00;;
27744;SDS011;61387;48.112;8.616;2022-12-07T01:33:37;13.70;;;7.50;;
27744;SDS011;61387;48.112;8.616;2022-12-07T01:36:08;13.80;;;7.07;;
27744;SDS011;61387;48.112;8.616;2022-12-07T01:38:38;13.17;;;6.83;;
27744;SDS011;61387;48.112;8.616;2022-12-07T01:41:04;12.17;;;6.37;;
27744;SDS011;61387;48.112;8.616;2022-12-07T01:43:31;14.70;;;6.97;;
27744;SDS011;61387;48.112;8.616;2022-12-07T01:45:58;12.47;;;6.43;;
27744;SDS011;61387;48.112;8.616;2022-12-07T01:48:29;14.23;;;7.03;;
27744;SDS011;61387;48.112;8.616;2022-12-07T01:51:02;13.80;;;6.77;;
27744;SDS011;61387;48.112;8.616;2022-12-07T01:53:31;14.17;;;7.17;;
27744;SDS011;61387;48.112;8.616;2022-12-07T01:56:00;12.43;;;6.40;;
27744;SDS011;61387;48.112;8.616;2022-12-07T01:58:26;14.90;;;7.57;;
27744;SDS011;61387;48.112;8.616;2022-12-07T02:00:52;14.50;;;7.00;;
27744;SDS011;61387;48.112;8.616;2022-12-07T02:03:19;13.77;;;7.17;;
27744;SDS011;61387;48.112;8.616;2022-12-07T02:05:51;15.13;;;7.47;;
27744;SDS011;61387;48.112;8.616;2022-12-07T02:08:18;15.30;;;7.00;;
27744;SDS011;61387;48.112;8.616;2022-12-07T02:10:44;14.00;;;7.10;;
27744;SDS011;61387;48.112;8.616;2022-12-07T02:13:18;14.53;;;6.80;;
27744;SDS011;61387;48.112;8.616;2022-12-07T02:16:05;14.23;;;7.20;;
27744;SDS011;61387;48.112;8.616;2022-12-07T02:30:08;15.57;;;7.07;;
27744;SDS011;61387;48.112;8.616;2022-12-07T02:35:33;12.77;;;6.93;;
27744;SDS011;61387;48.112;8.616;2022-12-07T02:38:13;14.53;;;6.93;;
27744;SDS011;61387;48.112;8.616;2022-12-07T02:41:01;14.37;;;7.10;;
27744;SDS011;61387;48.112;8.616;2022-12-07T02:43:46;12.77;;;6.27;;
27744;SDS011;61387;48.112;8.616;2022-12-07T02:46:21;12.90;;;7.00;;
27744;SDS011;61387;48.112;8.616;2022-12-07T02:49:07;15.47;;;7.10;;
27744;SDS011;61387;48.112;8.616;2022-12-07T02:51:34;14.00;;;6.93;;
27744;SDS011;61387;48.112;8.616;2022-12-07T02:54:08;14.83;;;7.17;;
27744;SDS011;61387;48.112;8.616;2022-12-07T02:56:41;17.13;;;7.20;;
27744;SDS011;61387;48.112;8.616;2022-12-07T02:59:24;16.00;;;6.33;;
27744;SDS011;61387;48.112;8.616;2022-12-07T03:07:19;15.67;;;7.10;;
27744;SDS011;61387;48.112;8.616;2022-12-07T03:13:19;13.43;;;7.63;;
27744;SDS011;61387;48.112;8.616;2022-12-07T03:15:46;14.73;;;6.70;;
27744;SDS011;61387;48.112;8.616;2022-12-07T03:18:20;13.50;;;6.73;;
27744;SDS011;61387;48.112;8.616;2022-12-07T03:20:49;15.33;;;7.37;;
27744;SDS011;61387;48.112;8.616;2022-12-07T03:23:20;15.63;;;6.50;;
27744;SDS011;61387;48.112;8.616;2022-12-07T03:25:51;13.53;;;6.67;;
27744;SDS011;61387;48.112;8.616;2022-12-07T03:28:20;13.97;;;7.13;;
27744;SDS011;61387;48.112;8.616;2022-12-07T03:30:50;11.67;;;6.77;;
27744;SDS011;61387;48.112;8.616;2022-12-07T03:33:28;14.57;;;6.40;;
27744;SDS011;61387;48.112;8.616;2022-12-07T03:36:01;16.10;;;6.50;;
27744;SDS011;61387;48.112;8.616;2022-12-07T03:38:38;12.03;;;6.27;;
27744;SDS011;61387;48.112;8.616;2022-12-07T03:41:25;13.87;;;6.47;;
27744;SDS011;61387;48.112;8.616;2022-12-07T03:43:56;14.20;;;6.57;;
27744;SDS011;61387;48.112;8.616;2022-12-07T03:46:37;11.67;;;6.80;;
27744;SDS011;61387;48.112;8.616;2022-12-07T03:52:01;15.07;;;6.80;;
27744;SDS011;61387;48.112;8.616;2022-12-07T03:54:39;13.27;;;7.27;;
27744;SDS011;61387;48.112;8.616;2022-12-07T03:57:10;13.57;;;6.53;;
27744;SDS011;61387;48.112;8.616;2022-12-07T03:59:37;12.67;;;6.63;;
27744;SDS011;61387;48.112;8.616;2022-12-07T04:02:05;13.13;;;6.90;;
27744;SDS011;61387;48.112;8.616;2022-12-07T04:04:32;13.23;;;6.77;;
27744;SDS011;61387;48.112;8.616;2022-12-07T04:06:58;12.67;;;6.20;;
27744;SDS011;61387;48.112;8.616;2022-12-07T04:09:24;12.60;;;6.83;;
27744;SDS011;61387;48.112;8.616;2022-12-07T04:11:50;12.80;;;6.60;;
27744;SDS011;61387;48.112;8.616;2022-12-07T04:14:16;11.93;;;6.33;;
27744;SDS011;61387;48.112;8.616;2022-12-07T04:16:43;13.37;;;6.77;;
27744;SDS011;61387;48.112;8.616;2022-12-07T04:19:09;12.93;;;6.40;;
27744;SDS011;61387;48.112;8.616;2022-12-07T04:21:35;13.03;;;6.60;;
27744;SDS011;61387;48.112;8.616;2022-12-07T04:24:01;12.73;;;6.87;;
27744;SDS011;61387;48.112;8.616;2022-12-07T04:26:27;11.73;;;6.57;;
27744;SDS011;61387;48.112;8.616;2022-12-07T04:28:53;11.03;;;6.43;;
27744;SDS011;61387;48.112;8.616;2022-12-07T04:31:19;11.77;;;7.03;;
27744;SDS011;61387;48.112;8.616;2022-12-07T04:33:45;11.03;;;6.17;;
27744;SDS011;61387;48.112;8.616;2022-12-07T04:36:11;14.50;;;6.33;;
27744;SDS011;61387;48.112;8.616;2022-12-07T04:38:37;15.83;;;7.40;;
27744;SDS011;61387;48.112;8.616;2022-12-07T04:41:06;12.50;;;6.07;;
27744;SDS011;61387;48.112;8.616;2022-12-07T04:43:33;13.83;;;7.13;;
27744;SDS011;61387;48.112;8.616;2022-12-07T04:45:59;12.20;;;6.17;;
27744;SDS011;61387;48.112;8.616;2022-12-07T04:48:25;12.40;;;6.20;;
27744;SDS011;61387;48.112;8.616;2022-12-07T04:50:51;13.43;;;7.47;;
27744;SDS011;61387;48.112;8.616;2022-12-07T04:53:17;11.80;;;6.20;;
27744;SDS011;61387;48.112;8.616;2022-12-07T04:55:43;13.87;;;6.37;;
27744;SDS011;61387;48.112;8.616;2022-12-07T04:58:09;11.07;;;6.07;;
27744;SDS011;61387;48.112;8.616;2022-12-07T05:00:35;12.50;;;6.53;;
27744;SDS011;61387;48.112;8.616;2022-12-07T05:03:01;12.20;;;6.80;;
27744;SDS011;61387;48.112;8.616;2022-12-07T05:05:27;10.20;;;5.93;;
27744;SDS011;61387;48.112;8.616;2022-12-07T05:07:53;11.47;;;6.10;;
27744;SDS011;61387;48.112;8.616;2022-12-07T05:10:19;11.93;;;6.50;;
27744;SDS011;61387;48.112;8.616;2022-12-07T05:12:45;13.13;;;6.17;;
27744;SDS011;61387;48.112;8.616;2022-12-07T05:15:12;12.53;;;6.03;;
27744;SDS011;61387;48.112;8.616;2022-12-07T05:17:38;12.07;;;6.73;;
27744;SDS011;61387;48.112;8.616;2022-12-07T05:20:04;11.50;;;6.63;;
27744;SDS011;61387;48.112;8.616;2022-12-07T05:22:30;11.53;;;6.77;;
27744;SDS011;61387;48.112;8.616;2022-12-07T05:24:56;14.20;;;6.90;;
27744;SDS011;61387;48.112;8.616;2022-12-07T05:27:22;10.33;;;6.20;;
27744;SDS011;61387;48.112;8.616;2022-12-07T05:29:49;10.33;;;6.17;;
27744;SDS011;61387;48.112;8.616;2022-12-07T05:32:15;10.83;;;6.47;;
27744;SDS011;61387;48.112;8.616;2022-12-07T05:34:41;11.67;;;6.30;;
27744;SDS011;61387;48.112;8.616;2022-12-07T05:37:07;12.10;;;6.67;;
27744;SDS011;61387;48.112;8.616;2022-12-07T05:39:33;11.73;;;6.73;;
27744;SDS011;61387;48.112;8.616;2022-12-07T05:41:59;13.40;;;7.47;;
27744;SDS011;61387;48.112;8.616;2022-12-07T05:44:46;11.37;;;6.83;;
27744;SDS011;61387;48.112;8.616;2022-12-07T05:47:13;12.43;;;7.00;;
27744;SDS011;61387;48.112;8.616;2022-12-07T05:49:39;12.37;;;7.47;;
27744;SDS011;61387;48.112;8.616;2022-12-07T05:52:05;11.73;;;6.80;;
27744;SDS011;61387;48.112;8.616;2022-12-07T05:54:32;12.87;;;7.27;;
27744;SDS011;61387;48.112;8.616;2022-12-07T05:56:58;11.87;;;7.07;;
27744;SDS011;61387;48.112;8.616;2022-12-07T05:59:25;12.00;;;6.60;;
27744;SDS011;61387;48.112;8.616;2022-12-07T06:01:53;10.20;;;6.23;;
27744;SDS011;61387;48.112;8.616;2022-12-07T06:04:19;12.47;;;6.43;;
27744;SDS011;61387;48.112;8.616;2022-12-07T06:06:46;9.60;;;5.70;;
27744;SDS011;61387;48.112;8.616;2022-12-07T06:09:12;11.30;;;6.17;;
27744;SDS011;61387;48.112;8.616;2022-12-07T06:11:39;12.00;;;6.40;;
27744;SDS011;61387;48.112;8.616;2022-12-07T06:14:23;11.37;;;6.23;;
27744;SDS011;61387;48.112;8.616;2022-12-07T06:16:49;13.30;;;6.45;;
27744;SDS011;61387;48.112;8.616;2022-12-07T06:19:14;11.97;;;6.57;;
27744;SDS011;61387;48.112;8.616;2022-12-07T06:21:41;13.23;;;7.37;;
27744;SDS011;61387;48.112;8.616;2022-12-07T06:24:07;11.50;;;7.10;;
27744;SDS011;61387;48.112;8.616;2022-12-07T06:26:36;12.23;;;6.83;;
27744;SDS011;61387;48.112;8.616;2022-12-07T06:29:02;31.17;;;14.90;;
27744;SDS011;61387;48.112;8.616;2022-12-07T06:31:28;13.43;;;7.37;;
27744;SDS011;61387;48.112;8.616;2022-12-07T06:33:58;11.83;;;6.73;;
27744;SDS011;61387;48.112;8.616;2022-12-07T06:36:24;12.30;;;7.00;;
27744;SDS011;61387;48.112;8.616;2022-12-07T06:38:50;13.07;;;7.33;;
27744;SDS011;61387;48.112;8.616;2022-12-07T06:41:17;12.70;;;7.07;;
27744;SDS011;61387;48.112;8.616;2022-12-07T06:43:42;11.30;;;6.87;;
27744;SDS011;61387;48.112;8.616;2022-12-07T06:46:08;13.20;;;6.33;;
27744;SDS011;61387;48.112;8.616;2022-12-07T06:48:34;12.70;;;6.87;;
27744;SDS011;61387;48.112;8.616;2022-12-07T06:51:00;14.00;;;7.20;;
27744;SDS011;61387;48.112;8.616;2022-12-07T06:53:26;11.70;;;6.80;;
27744;SDS011;61387;48.112;8.616;2022-12-07T06:55:52;13.23;;;7.07;;
27744;SDS011;61387;48.112;8.616;2022-12-07T06:58:18;12.57;;;6.90;;
27744;SDS011;61387;48.112;8.616;2022-12-07T07:00:44;13.27;;;6.90;;
27744;SDS011;61387;48.112;8.616;2022-12-07T07:03:10;10.63;;;6.47;;
27744;SDS011;61387;48.112;8.616;2022-12-07T07:05:36;11.83;;;6.67;;
27744;SDS011;61387;48.112;8.616;2022-12-07T07:08:02;14.23;;;6.53;;
27744;SDS011;61387;48.112;8.616;2022-12-07T07:10:28;13.80;;;8.27;;
27744;SDS011;61387;48.112;8.616;2022-12-07T07:12:54;22.67;;;12.80;;
27744;SDS011;61387;48.112;8.616;2022-12-07T07:15:20;16.97;;;9.00;;
27744;SDS011;61387;48.112;8.616;2022-12-07T07:17:46;16.30;;;7.67;;
27744;SDS011;61387;48.112;8.616;2022-12-07T07:20:12;15.57;;;7.80;;
27744;SDS011;61387;48.112;8.616;2022-12-07T07:22:38;14.20;;;8.33;;
27744;SDS011;61387;48.112;8.616;2022-12-07T07:25:04;14.60;;;7.73;;
27744;SDS011;61387;48.112;8.616;2022-12-07T07:27:30;14.07;;;7.33;;
27744;SDS011;61387;48.112;8.616;2022-12-07T07:29:56;12.77;;;7.13;;
27744;SDS011;61387;48.112;8.616;2022-12-07T07:32:22;12.77;;;7.20;;
27744;SDS011;61387;48.112;8.616;2022-12-07T07:34:48;12.13;;;6.50;;
27744;SDS011;61387;48.112;8.616;2022-12-07T07:37:14;13.40;;;6.53;;
27744;SDS011;61387;48.112;8.616;2022-12-07T07:39:40;12.57;;;7.10;;
27744;SDS011;61387;48.112;8.616;2022-12-07T07:42:06;15.13;;;7.83;;
27744;SDS011;61387;48.112;8.616;2022-12-07T07:44:32;14.63;;;7.50;;
27744;SDS011;61387;48.112;8.616;2022-12-07T07:46:59;16.73;;;8.67;;
27744;SDS011;61387;48.112;8.616;2022-12-07T07:49:25;14.37;;;7.87;;
27744;SDS011;61387;48.112;8.616;2022-12-07T07:51:51;19.23;;;9.53;;
27744;SDS011;61387;48.112;8.616;2022-12-07T07:54:17;18.47;;;10.53;;
27744;SDS011;61387;48.112;8.616;2022-12-07T07:56:43;28.03;;;12.47;;
27744;SDS011;61387;48.112;8.616;2022-12-07T07:59:08;21.97;;;12.30;;
27744;SDS011;61387;48.112;8.616;2022-12-07T08:01:34;31.50;;;16.93;;
27744;SDS011;61387;48.112;8.616;2022-12-07T08:04:00;30.00;;;15.67;;
27744;SDS011;61387;48.112;8.616;2022-12-07T08:06:26;24.17;;;13.37;;
27744;SDS011;61387;48.112;8.616;2022-12-07T08:08:52;24.13;;;12.10;;
27744;SDS011;61387;48.112;8.616;2022-12-07T08:11:18;25.23;;;13.80;;
27744;SDS011;61387;48.112;8.616;2022-12-07T08:13:45;23.13;;;11.73;;
27744;SDS011;61387;48.112;8.616;2022-12-07T08:16:12;22.67;;;12.77;;
27744;SDS011;61387;48.112;8.616;2022-12-07T08:18:39;18.77;;;11.30;;
27744;SDS011;61387;48.112;8.616;2022-12-07T08:21:06;19.80;;;10.27;;
27744;SDS011;61387;48.112;8.616;2022-12-07T08:23:34;18.83;;;10.00;;
27744;SDS011;61387;48.112;8.616;2022-12-07T08:26:01;19.57;;;9.93;;
27744;SDS011;61387;48.112;8.616;2022-12-07T08:28:27;17.77;;;10.33;;
27744;SDS011;61387;48.112;8.616;2022-12-07T08:31:00;19.83;;;9.70;;
27744;SDS011;61387;48.112;8.616;2022-12-07T08:33:27;24.30;;;11.93;;
27744;SDS011;61387;48.112;8.616;2022-12-07T08:35:53;18.10;;;9.23;;
27744;SDS011;61387;48.112;8.616;2022-12-07T08:38:19;17.90;;;10.17;;
27744;SDS011;61387;48.112;8.616;2022-12-07T08:40:52;19.90;;;12.67;;
27744;SDS011;61387;48.112;8.616;2022-12-07T08:43:22;14.87;;;8.67;;
27744;SDS011;61387;48.112;8.616;2022-12-07T08:45:49;17.10;;;9.60;;
27744;SDS011;61387;48.112;8.616;2022-12-07T08:48:28;13.80;;;7.77;;
27744;SDS011;61387;48.112;8.616;2022-12-07T08:50:55;16.87;;;8.23;;
27744;SDS011;61387;48.112;8.616;2022-12-07T08:53:21;13.80;;;8.00;;
27744;SDS011;61387;48.112;8.616;2022-12-07T08:55:47;14.67;;;7.97;;
27744;SDS011;61387;48.112;8.616;2022-12-07T08:58:13;14.37;;;7.63;;
27744;SDS011;61387;48.112;8.616;2022-12-07T09:00:40;16.07;;;8.33;;
27744;SDS011;61387;48.112;8.616;2022-12-07T09:03:06;14.50;;;7.33;;
27744;SDS011;61387;48.112;8.616;2022-12-07T09:05:32;14.27;;;8.23;;
27744;SDS011;61387;48.112;8.616;2022-12-07T09:07:59;14.40;;;7.33;;
27744;SDS011;61387;48.112;8.616;2022-12-07T09:10:26;14.80;;;7.23;;
27744;SDS011;61387;48.112;8.616;2022-12-07T09:12:55;15.47;;;7.77;;
27744;SDS011;61387;48.112;8.616;2022-12-07T09:15:25;14.87;;;8.20;;
27744;SDS011;61387;48.112;8.616;2022-12-07T09:17:52;13.37;;;7.43;;
27744;SDS011;61387;48.112;8.616;2022-12-07T09:20:18;23.03;;;13.20;;
27744;SDS011;61387;48.112;8.616;2022-12-07T09:22:44;23.17;;;13.17;;
27744;SDS011;61387;48.112;8.616;2022-12-07T09:25:10;52.53;;;28.20;;
27744;SDS011;61387;48.112;8.616;2022-12-07T09:27:35;30.97;;;18.07;;
27744;SDS011;61387;48.112;8.616;2022-12-07T09:30:02;49.90;;;28.50;;
27744;SDS011;61387;48.112;8.616;2022-12-07T09:32:29;87.87;;;44.17;;
27744;SDS011;61387;48.112;8.616;2022-12-07T09:34:55;53.07;;;28.90;;
27744;SDS011;61387;48.112;8.616;2022-12-07T09:37:21;22.23;;;10.83;;
27744;SDS011;61387;48.112;8.616;2022-12-07T09:39:47;35.03;;;16.67;;
27744;SDS011;61387;48.112;8.616;2022-12-07T09:42:26;37.43;;;19.63;;
27744;SDS011;61387;48.112;8.616;2022-12-07T09:44:57;54.00;;;26.23;;
27744;SDS011;61387;48.112;8.616;2022-12-07T09:47:23;28.63;;;13.83;;
27744;SDS011;61387;48.112;8.616;2022-12-07T09:49:50;39.90;;;20.80;;
27744;SDS011;61387;48.112;8.616;2022-12-07T09:52:34;81.73;;;37.77;;
27744;SDS011;61387;48.112;8.616;2022-12-07T09:55:01;56.83;;;25.63;;
27744;SDS011;61387;48.112;8.616;2022-12-07T09:57:31;75.47;;;31.50;;
27744;SDS011;61387;48.112;8.616;2022-12-07T10:00:18;70.97;;;30.07;;
27744;SDS011;61387;48.112;8.616;2022-12-07T10:02:55;23.80;;;11.23;;
27744;SDS011;61387;48.112;8.616;2022-12-07T10:07:56;33.23;;;14.90;;
27744;SDS011;61387;48.112;8.616;2022-12-07T10:10:27;64.70;;;25.60;;
27744;SDS011;61387;48.112;8.616;2022-12-07T10:12:57;43.50;;;19.47;;
27744;SDS011;61387;48.112;8.616;2022-12-07T10:15:41;64.20;;;27.80;;
27744;SDS011;61387;48.112;8.616;2022-12-07T10:23:41;30.20;;;13.33;;
27744;SDS011;61387;48.112;8.616;2022-12-07T10:26:40;23.77;;;9.97;;
27744;SDS011;61387;48.112;8.616;2022-12-07T10:29:15;20.50;;;10.07;;
27744;SDS011;61387;48.112;8.616;2022-12-07T10:32:05;17.50;;;9.73;;
27744;SDS011;61387;48.112;8.616;2022-12-07T10:34:41;17.07;;;8.83;;
27744;SDS011;61387;48.112;8.616;2022-12-07T10:39:40;27.07;;;13.30;;
27744;SDS011;61387;48.112;8.616;2022-12-07T10:42:09;13.30;;;7.70;;
27744;SDS011;61387;48.112;8.616;2022-12-07T10:44:42;18.53;;;10.90;;
27744;SDS011;61387;48.112;8.616;2022-12-07T11:16:02;10.33;;;5.73;;
27744;SDS011;61387;48.112;8.616;2022-12-07T11:22:43;13.13;;;7.07;;
27744;SDS011;61387;48.112;8.616;2022-12-07T11:24:50;11.97;;;6.77;;
27744;SDS011;61387;48.112;8.616;2022-12-07T11:27:28;14.23;;;6.40;;
27744;SDS011;61387;48.112;8.616;2022-12-07T11:32:58;11.20;;;6.90;;
27744;SDS011;61387;48.112;8.616;2022-12-07T11:35:36;12.47;;;6.63;;
27744;SDS011;61387;48.112;8.616;2022-12-07T11:38:23;12.63;;;6.97;;
27744;SDS011;61387;48.112;8.616;2022-12-07T11:40:58;12.10;;;6.40;;
27744;SDS011;61387;48.112;8.616;2022-12-07T11:43:37;11.87;;;6.93;;
27744;SDS011;61387;48.112;8.616;2022-12-07T11:46:17;11.80;;;6.47;;
27744;SDS011;61387;48.112;8.616;2022-12-07T11:48:45;11.97;;;6.83;;
27744;SDS011;61387;48.112;8.616;2022-12-07T11:51:12;10.10;;;5.83;;
27744;SDS011;61387;48.112;8.616;2022-12-07T11:53:42;9.47;;;5.03;;
27744;SDS011;61387;48.112;8.616;2022-12-07T11:56:19;10.17;;;5.90;;
27744;SDS011;61387;48.112;8.616;2022-12-07T12:06:36;9.40;;;5.33;;
27744;SDS011;61387;48.112;8.616;2022-12-07T12:17:24;8.43;;;4.27;;
27744;SDS011;61387;48.112;8.616;2022-12-07T12:20:05;8.57;;;4.10;;
27744;SDS011;61387;48.112;8.616;2022-12-07T12:25:36;7.37;;;3.67;;
27744;SDS011;61387;48.112;8.616;2022-12-07T12:38:48;25.77;;;12.07;;
27744;SDS011;61387;48.112;8.616;2022-12-07T12:41:50;7.80;;;4.00;;
27744;SDS011;61387;48.112;8.616;2022-12-07T12:51:53;5.03;;;3.00;;
27744;SDS011;61387;48.112;8.616;2022-12-07T12:54:22;7.60;;;2.83;;
27744;SDS011;61387;48.112;8.616;2022-12-07T12:56:55;4.00;;;2.50;;
27744;SDS011;61387;48.112;8.616;2022-12-07T12:59:38;4.13;;;2.50;;
27744;SDS011;61387;48.112;8.616;2022-12-07T13:02:28;5.30;;;2.60;;
27744;SDS011;61387;48.112;8.616;2022-12-07T13:12:56;5.13;;;2.67;;
27744;SDS011;61387;48.112;8.616;2022-12-07T13:15:32;6.40;;;3.03;;
27744;SDS011;61387;48.112;8.616;2022-12-07T13:25:58;5.83;;;2.80;;
27744;SDS011;61387;48.112;8.616;2022-12-07T13:28:26;4.03;;;2.17;;
27744;SDS011;61387;48.112;8.616;2022-12-07T13:31:02;5.90;;;2.80;;
27744;SDS011;61387;48.112;8.616;2022-12-07T13:33:38;2.53;;;1.77;;
27744;SDS011;61387;48.112;8.616;2022-12-07T13:36:04;4.20;;;2.20;;
27744;SDS011;61387;48.112;8.616;2022-12-07T13:38:40;11.53;;;3.50;;
27744;SDS011;61387;48.112;8.616;2022-12-07T13:41:16;6.07;;;2.70;;
27744;SDS011;61387;48.112;8.616;2022-12-07T13:43:54;5.67;;;2.40;;
27744;SDS011;61387;48.112;8.616;2022-12-07T13:46:34;3.83;;;1.93;;
27744;SDS011;61387;48.112;8.616;2022-12-07T13:49:21;7.43;;;2.40;;
27744;SDS011;61387;48.112;8.616;2022-12-07T13:51:55;13.90;;;4.30;;
27744;SDS011;61387;48.112;8.616;2022-12-07T13:54:48;5.63;;;2.40;;
27744;SDS011;61387;48.112;8.616;2022-12-07T13:57:21;8.83;;;2.23;;
27744;SDS011;61387;48.112;8.616;2022-12-07T13:59:48;5.87;;;2.60;;
27744;SDS011;61387;48.112;8.616;2022-12-07T14:02:17;7.83;;;2.80;;
27744;SDS011;61387;48.112;8.616;2022-12-07T14:04:51;4.17;;;2.30;;
27744;SDS011;61387;48.112;8.616;2022-12-07T14:07:21;5.17;;;2.80;;
27744;SDS011;61387;48.112;8.616;2022-12-07T14:12:21;5.57;;;2.47;;
27744;SDS011;61387;48.112;8.616;2022-12-07T14:14:47;3.70;;;2.37;;
27744;SDS011;61387;48.112;8.616;2022-12-07T14:17:15;4.10;;;2.27;;
27744;SDS011;61387;48.112;8.616;2022-12-07T14:19:57;2.93;;;1.90;;
27744;SDS011;61387;48.112;8.616;2022-12-07T14:22:35;9.57;;;2.27;;
27744;SDS011;61387;48.112;8.616;2022-12-07T14:25:14;5.70;;;2.43;;
27744;SDS011;61387;48.112;8.616;2022-12-07T14:30:20;6.20;;;2.50;;
27744;SDS011;61387;48.112;8.616;2022-12-07T14:32:51;5.00;;;2.43;;
27744;SDS011;61387;48.112;8.616;2022-12-07T14:35:20;5.20;;;2.27;;
27744;SDS011;61387;48.112;8.616;2022-12-07T14:37:47;5.97;;;2.30;;
27744;SDS011;61387;48.112;8.616;2022-12-07T14:40:16;5.40;;;2.60;;
27744;SDS011;61387;48.112;8.616;2022-12-07T14:42:46;4.90;;;2.40;;
27744;SDS011;61387;48.112;8.616;2022-12-07T14:45:20;6.27;;;2.70;;
27744;SDS011;61387;48.112;8.616;2022-12-07T14:47:46;11.80;;;2.70;;
27744;SDS011;61387;48.112;8.616;2022-12-07T14:50:14;8.97;;;2.47;;
27744;SDS011;61387;48.112;8.616;2022-12-07T14:52:41;4.10;;;2.50;;
27744;SDS011;61387;48.112;8.616;2022-12-07T14:55:13;8.87;;;3.40;;
27744;SDS011;61387;48.112;8.616;2022-12-07T14:57:50;3.63;;;2.40;;
27744;SDS011;61387;48.112;8.616;2022-12-07T15:00:17;5.57;;;2.30;;
27744;SDS011;61387;48.112;8.616;2022-12-07T15:02:44;9.77;;;4.40;;
27744;SDS011;61387;48.112;8.616;2022-12-07T15:05:12;14.70;;;3.57;;
27744;SDS011;61387;48.112;8.616;2022-12-07T15:07:38;4.25;;;2.50;;
27744;SDS011;61387;48.112;8.616;2022-12-07T15:10:04;4.23;;;2.50;;
27744;SDS011;61387;48.112;8.616;2022-12-07T15:12:31;5.20;;;2.50;;
27744;SDS011;61387;48.112;8.616;2022-12-07T15:14:57;7.17;;;2.53;;
27744;SDS011;61387;48.112;8.616;2022-12-07T15:17:23;7.57;;;2.50;;
27744;SDS011;61387;48.112;8.616;2022-12-07T15:19:49;9.67;;;2.43;;
27744;SDS011;61387;48.112;8.616;2022-12-07T15:22:15;10.53;;;2.70;;
27744;SDS011;61387;48.112;8.616;2022-12-07T15:24:42;4.00;;;2.33;;
27744;SDS011;61387;48.112;8.616;2022-12-07T15:27:07;8.73;;;2.90;;
27744;SDS011;61387;48.112;8.616;2022-12-07T15:29:33;16.30;;;2.70;;
27744;SDS011;61387;48.112;8.616;2022-12-07T15:31:59;5.80;;;2.77;;
27744;SDS011;61387;48.112;8.616;2022-12-07T15:34:25;8.97;;;3.83;;
27744;SDS011;61387;48.112;8.616;2022-12-07T15:36:55;8.60;;;3.63;;
27744;SDS011;61387;48.112;8.616;2022-12-07T15:39:23;6.60;;;3.43;;
27744;SDS011;61387;48.112;8.616;2022-12-07T15:41:49;6.57;;;3.00;;
27744;SDS011;61387;48.112;8.616;2022-12-07T15:44:15;33.80;;;17.60;;
27744;SDS011;61387;48.112;8.616;2022-12-07T15:47:00;19.10;;;11.43;;
27744;SDS011;61387;48.112;8.616;2022-12-07T15:49:26;25.67;;;15.20;;
27744;SDS011;61387;48.112;8.616;2022-12-07T15:51:52;32.93;;;21.57;;
27744;SDS011;61387;48.112;8.616;2022-12-07T15:54:25;58.23;;;32.03;;
27744;SDS011;61387;48.112;8.616;2022-12-07T15:56:53;100.20;;;56.53;;
27744;SDS011;61387;48.112;8.616;2022-12-07T15:59:19;164.40;;;91.50;;
27744;SDS011;61387;48.112;8.616;2022-12-07T16:01:45;180.33;;;85.67;;
27744;SDS011;61387;48.112;8.616;2022-12-07T16:04:11;71.30;;;35.57;;
27744;SDS011;61387;48.112;8.616;2022-12-07T16:06:37;59.13;;;32.03;;
27744;SDS011;61387;48.112;8.616;2022-12-07T16:09:03;60.37;;;32.73;;
27744;SDS011;61387;48.112;8.616;2022-12-07T16:11:29;17.63;;;10.00;;
27744;SDS011;61387;48.112;8.616;2022-12-07T16:13:55;20.40;;;12.23;;
27744;SDS011;61387;48.112;8.616;2022-12-07T16:16:21;6.93;;;3.93;;
27744;SDS011;61387;48.112;8.616;2022-12-07T16:18:48;6.07;;;3.53;;
27744;SDS011;61387;48.112;8.616;2022-12-07T16:21:14;8.10;;;3.83;;
27744;SDS011;61387;48.112;8.616;2022-12-07T16:23:41;7.13;;;3.60;;
27744;SDS011;61387;48.112;8.616;2022-12-07T16:26:08;6.43;;;3.63;;
27744;SDS011;61387;48.112;8.616;2022-12-07T16:28:40;6.77;;;3.90;;
27744;SDS011;61387;48.112;8.616;2022-12-07T16:31:13;8.35;;;4.25;;
27744;SDS011;61387;48.112;8.616;2022-12-07T16:33:41;7.87;;;4.03;;
27744;SDS011;61387;48.112;8.616;2022-12-07T16:36:08;6.30;;;3.33;;
27744;SDS011;61387;48.112;8.616;2022-12-07T16:38:36;7.77;;;3.83;;
27744;SDS011;61387;48.112;8.616;2022-12-07T16:41:02;10.23;;;3.97;;
27744;SDS011;61387;48.112;8.616;2022-12-07T16:43:28;17.63;;;8.47;;
27744;SDS011;61387;48.112;8.616;2022-12-07T16:45:54;8.83;;;4.27;;
27744;SDS011;61387;48.112;8.616;2022-12-07T16:48:20;8.20;;;4.03;;
27744;SDS011;61387;48.112;8.616;2022-12-07T16:50:46;6.23;;;3.60;;
27744;SDS011;61387;48.112;8.616;2022-12-07T16:53:13;5.77;;;3.17;;
27744;SDS011;61387;48.112;8.616;2022-12-07T16:55:40;5.37;;;3.20;;
27744;SDS011;61387;48.112;8.616;2022-12-07T16:58:09;8.67;;;4.27;;